createdAt,value
2022-09-15T00:02:13.803Z,71.48
2022-09-15T00:04:40.354Z,71.79
2022-09-15T00:07:07.005Z,72.79
2022-09-15T00:09:33.563Z,72.04
2022-09-15T00:12:00.134Z,71.90
2022-09-15T00:14:26.652Z,71.96
2022-09-15T00:16:53.212Z,71.73
2022-09-15T00:19:19.669Z,72.87
2022-09-15T00:21:46.510Z,72.58
2022-09-15T00:24:13.044Z,73.22
2022-09-15T00:26:39.657Z,73.05
2022-09-15T00:29:06.189Z,73.08
2022-09-15T00:31:33.421Z,72.42
2022-09-15T00:34:04.941Z,72.59
2022-09-15T00:36:31.849Z,72.60
2022-09-15T00:38:58.915Z,72.69
2022-09-15T00:41:25.655Z,71.90
2022-09-15T00:43:56.658Z,72.25
2022-09-15T00:46:28.438Z,71.33
2022-09-15T00:49:09.341Z,72.09
2022-09-15T00:51:45.373Z,72.09
2022-09-15T00:54:17.537Z,72.49
2022-09-15T00:56:47.083Z,71.57
2022-09-15T00:59:18.907Z,72.10
2022-09-15T01:01:47.242Z,72.00
2022-09-15T01:04:15.735Z,72.23
2022-09-15T01:06:50.564Z,72.61
2022-09-15T01:09:26.995Z,72.41
2022-09-15T01:11:53.553Z,72.14
2022-09-15T01:14:20.046Z,72.27
2022-09-15T01:17:07.023Z,73.40
2022-09-15T01:19:52.320Z,73.21
2022-09-15T01:22:57.323Z,72.87
2022-09-15T01:25:48.566Z,72.44
2022-09-15T01:28:20.773Z,72.42
2022-09-15T01:30:55.779Z,72.91
2022-09-15T01:33:37.421Z,72.81
2022-09-15T01:36:09.921Z,72.73
2022-09-15T01:38:40.318Z,73.16
2022-09-15T01:41:14.412Z,72.75
2022-09-15T01:43:57.117Z,73.25
2022-09-15T01:46:26.553Z,73.17
2022-09-15T01:48:57.140Z,74.19
2022-09-15T01:51:26.787Z,74.26
2022-09-15T01:53:55.002Z,73.58
2022-09-15T01:56:21.627Z,74.30
2022-09-15T01:58:51.023Z,74.06
2022-09-15T02:01:28.247Z,74.53
2022-09-15T02:04:05.351Z,74.77
2022-09-15T02:06:39.712Z,75.10
2022-09-15T02:09:23.698Z,74.97
2022-09-15T02:12:19.963Z,75.72
2022-09-15T02:15:03.458Z,75.29
2022-09-15T02:17:32.650Z,75.49
2022-09-15T02:20:15.565Z,75.69
2022-09-15T02:22:47.598Z,75.32
2022-09-15T02:25:18.724Z,75.24
2022-09-15T02:27:51.273Z,75.22
2022-09-15T02:30:19.924Z,75.31
2022-09-15T02:32:56.266Z,75.50
2022-09-15T02:35:25.979Z,75.60
2022-09-15T02:37:53.690Z,75.99
2022-09-15T02:40:21.559Z,75.30
2022-09-15T02:43:03.717Z,75.94
2022-09-15T02:45:31.425Z,75.71
2022-09-15T02:47:58.845Z,76.34
2022-09-15T02:50:26.697Z,75.76
2022-09-15T02:52:56.821Z,76.27
2022-09-15T02:55:24.163Z,76.17
2022-09-15T02:57:50.685Z,75.99
2022-09-15T03:00:19.387Z,75.42
2022-09-15T03:02:51.953Z,75.79
2022-09-15T03:05:21.469Z,76.33
2022-09-15T03:07:48.538Z,75.66
2022-09-15T03:10:15.114Z,75.63
2022-09-15T03:12:44.504Z,75.68
2022-09-15T03:15:13.075Z,75.84
2022-09-15T03:17:41.874Z,75.79
2022-09-15T03:20:10.671Z,75.74
2022-09-15T03:22:37.493Z,76.85
2022-09-15T03:25:05.560Z,76.54
2022-09-15T03:27:33.193Z,75.88
2022-09-15T03:29:59.726Z,75.85
2022-09-15T03:32:26.249Z,75.60
2022-09-15T03:34:56.438Z,76.17
2022-09-15T03:37:25.299Z,76.54
2022-09-15T03:39:51.871Z,76.00
2022-09-15T03:42:18.665Z,76.06
2022-09-15T03:44:45.130Z,76.82
2022-09-15T03:47:11.601Z,76.73
2022-09-15T03:49:38.510Z,75.97
2022-09-15T03:52:05.168Z,76.17
2022-09-15T03:54:31.778Z,76.68
2022-09-15T03:56:58.474Z,76.58
2022-09-15T03:59:24.987Z,76.46
2022-09-15T04:01:51.685Z,76.79
2022-09-15T04:04:18.214Z,76.79
2022-09-15T04:06:44.990Z,76.95
2022-09-15T04:09:11.877Z,76.90
2022-09-15T04:11:39.561Z,76.86
2022-09-15T04:14:06.047Z,76.96
2022-09-15T04:16:32.585Z,76.80
2022-09-15T04:18:59.330Z,76.75
2022-09-15T04:21:26.752Z,76.94
2022-09-15T04:23:54.127Z,76.84
2022-09-15T04:26:26.127Z,76.83
2022-09-15T04:28:52.762Z,77.04
2022-09-15T04:31:20.425Z,77.43
2022-09-15T04:33:47.693Z,77.51
2022-09-15T04:36:17.790Z,76.65
2022-09-15T04:38:44.932Z,76.86
2022-09-15T04:41:12.325Z,77.31
2022-09-15T04:43:39.091Z,77.74
2022-09-15T04:46:06.679Z,77.52
2022-09-15T04:48:33.619Z,77.29
2022-09-15T04:51:21.191Z,77.57
2022-09-15T04:53:48.188Z,77.13
2022-09-15T04:56:21.188Z,77.99
2022-09-15T04:58:55.712Z,77.74
2022-09-15T05:01:29.512Z,77.18
2022-09-15T05:03:56.634Z,77.37
2022-09-15T05:06:27.406Z,77.24
2022-09-15T05:08:57.046Z,77.05
2022-09-15T05:11:24.861Z,77.61
2022-09-15T05:13:51.996Z,77.38
2022-09-15T05:16:26.086Z,77.44
2022-09-15T05:18:54.559Z,78.08
2022-09-15T05:21:23.399Z,77.98
2022-09-15T05:23:51.909Z,78.11
2022-09-15T05:26:21.268Z,77.90
2022-09-15T05:28:47.804Z,78.14
2022-09-15T05:31:20.392Z,78.26
2022-09-15T05:33:48.903Z,78.30
2022-09-15T05:36:17.312Z,77.68
2022-09-15T05:38:44.456Z,77.35
2022-09-15T05:41:12.650Z,78.35
2022-09-15T05:43:40.011Z,77.71
2022-09-15T05:46:07.709Z,78.09
2022-09-15T05:48:37.872Z,77.88
2022-09-15T05:51:05.121Z,77.60
2022-09-15T05:53:35.032Z,77.67
2022-09-15T05:56:05.134Z,78.15
2022-09-15T05:58:31.821Z,77.65
2022-09-15T06:01:05.435Z,78.06
2022-09-15T06:03:34.206Z,78.03
2022-09-15T06:06:02.591Z,77.79
2022-09-15T06:08:34.674Z,78.01
2022-09-15T06:11:06.047Z,77.62
2022-09-15T06:13:33.178Z,78.03
2022-09-15T06:16:06.644Z,77.17
2022-09-15T06:18:35.571Z,77.77
2022-09-15T06:21:10.045Z,78.00
2022-09-15T06:23:37.487Z,78.04
2022-09-15T06:26:06.496Z,77.51
2022-09-15T06:28:33.744Z,77.40
2022-09-15T06:31:00.237Z,77.22
2022-09-15T06:33:27.606Z,76.87
2022-09-15T06:35:54.292Z,77.02
2022-09-15T06:38:20.872Z,77.82
2022-09-15T06:41:08.257Z,77.46
2022-09-15T06:43:36.287Z,77.39
2022-09-15T06:46:14.799Z,76.44
2022-09-15T06:48:44.293Z,76.72
2022-09-15T06:51:15.425Z,76.77
2022-09-15T06:53:41.966Z,76.97
2022-09-15T06:56:14.785Z,76.65
2022-09-15T06:58:42.895Z,76.67
2022-09-15T07:01:19.442Z,76.87
2022-09-15T07:03:46.002Z,76.68
2022-09-15T07:06:13.031Z,76.05
2022-09-15T07:08:40.683Z,76.97
2022-09-15T07:11:08.465Z,76.84
2022-09-15T07:13:35.498Z,76.06
2022-09-15T07:16:04.795Z,76.28
2022-09-15T07:18:32.569Z,75.31
2022-09-15T07:21:01.108Z,76.65
2022-09-15T07:23:28.031Z,75.96
2022-09-15T07:26:12.183Z,75.27
2022-09-15T07:28:39.835Z,75.84
2022-09-15T07:31:07.700Z,76.18
2022-09-15T07:33:34.870Z,76.11
2022-09-15T07:36:02.860Z,75.56
2022-09-15T07:38:29.881Z,75.00
2022-09-15T07:41:04.297Z,74.80
2022-09-15T07:43:31.531Z,75.93
2022-09-15T07:45:59.146Z,74.97
2022-09-15T07:48:26.574Z,74.22
2022-09-15T07:50:53.430Z,74.72
2022-09-15T07:53:20.801Z,74.77
2022-09-15T07:55:53.287Z,74.10
2022-09-15T07:58:19.954Z,74.44
2022-09-15T08:00:47.478Z,74.48
2022-09-15T08:03:15.366Z,74.00
2022-09-15T08:05:45.420Z,74.35
2022-09-15T08:08:12.357Z,73.67
2022-09-15T08:10:42.209Z,73.54
2022-09-15T08:13:08.863Z,74.03
2022-09-15T08:15:38.811Z,72.96
2022-09-15T08:18:06.204Z,72.93
2022-09-15T08:20:33.446Z,73.95
2022-09-15T08:23:00.324Z,72.65
2022-09-15T08:25:26.815Z,72.94
2022-09-15T08:27:54.156Z,72.65
2022-09-15T08:30:21.301Z,72.44
2022-09-15T08:32:48.339Z,72.14
2022-09-15T08:35:16.709Z,73.10
2022-09-15T08:37:43.385Z,73.02
2022-09-15T08:40:32.363Z,72.50
2022-09-15T08:43:03.620Z,72.76
2022-09-15T08:45:45.013Z,71.90
2022-09-15T08:48:15.941Z,72.05
2022-09-15T08:50:47.607Z,71.71
2022-09-15T08:53:20.759Z,72.08
2022-09-15T08:55:52.566Z,71.71
2022-09-15T08:58:20.389Z,70.34
2022-09-15T09:00:51.801Z,70.38
2022-09-15T09:03:53.536Z,70.67
2022-09-15T09:06:47.321Z,69.10
2022-09-15T09:09:25.631Z,70.47
2022-09-15T09:12:05.483Z,70.47
2022-09-15T09:14:56.077Z,69.19
2022-09-15T09:17:41.285Z,68.30
2022-09-15T09:20:33.904Z,67.56
2022-09-15T09:23:04.214Z,68.69
2022-09-15T09:25:31.255Z,67.76
2022-09-15T09:27:58.642Z,68.07
2022-09-15T09:30:29.594Z,67.89
2022-09-15T09:33:24.935Z,64.84
2022-09-15T09:35:55.567Z,66.40
2022-09-15T09:38:41.713Z,65.38
2022-09-15T09:41:17.179Z,65.08
2022-09-15T09:43:47.461Z,65.46
2022-09-15T09:46:17.622Z,65.41
2022-09-15T09:48:50.137Z,64.25
2022-09-15T09:51:32.985Z,63.93
2022-09-15T09:54:16.358Z,64.41
2022-09-15T09:56:44.358Z,63.95
2022-09-15T09:59:47.440Z,59.75
2022-09-15T10:02:20.579Z,62.42
2022-09-15T10:05:16.851Z,58.89
2022-09-15T10:07:46.305Z,60.13
2022-09-15T10:10:24.937Z,60.12
2022-09-15T10:12:56.492Z,60.89
2022-09-15T10:15:32.277Z,60.75
2022-09-15T10:17:58.924Z,59.92
2022-09-15T10:20:45.633Z,58.96
2022-09-15T10:23:18.096Z,59.04
2022-09-15T10:26:01.055Z,59.59
2022-09-15T10:28:28.099Z,58.92
2022-09-15T10:31:13.307Z,55.73
2022-09-15T10:33:50.731Z,59.13
2022-09-15T10:36:31.898Z,58.65
2022-09-15T10:39:10.425Z,56.32
2022-09-15T10:41:58.870Z,56.53
2022-09-15T10:44:49.615Z,53.34
2022-09-15T10:47:49.477Z,53.89
2022-09-15T10:50:32.226Z,52.17
2022-09-15T10:53:31.680Z,52.32
2022-09-15T10:56:15.487Z,51.45
2022-09-15T10:59:06.549Z,53.67
2022-09-15T11:01:33.444Z,54.87
2022-09-15T11:04:24.930Z,53.82
2022-09-15T11:07:19.579Z,50.46
2022-09-15T11:09:57.402Z,52.84
2022-09-15T11:12:33.014Z,51.66
2022-09-15T11:15:05.495Z,50.23
2022-09-15T11:18:01.849Z,51.60
2022-09-15T11:20:39.246Z,52.74
2022-09-15T11:23:34.028Z,50.93
2022-09-15T11:26:07.909Z,50.31
2022-09-15T11:28:54.992Z,51.56
2022-09-15T11:31:41.981Z,52.38
2022-09-15T11:34:24.006Z,50.35
2022-09-15T11:37:14.017Z,48.74
2022-09-15T11:40:23.764Z,49.60
2022-09-15T11:43:03.565Z,48.80
2022-09-15T11:45:45.287Z,49.66
2022-09-15T11:48:23.972Z,49.59
2022-09-15T11:50:53.494Z,50.17
2022-09-15T11:53:43.743Z,48.99
2022-09-15T11:56:26.788Z,49.87
2022-09-15T11:59:21.161Z,46.93
2022-09-15T12:01:59.508Z,47.66
2022-09-15T12:04:31.355Z,47.18
2022-09-15T12:07:15.898Z,46.73
2022-09-15T12:09:42.654Z,47.57
2022-09-15T12:12:15.783Z,48.67
2022-09-15T12:14:44.946Z,47.52
2022-09-15T12:17:34.855Z,46.38
2022-09-15T12:20:12.521Z,46.74
2022-09-15T12:22:45.892Z,47.02
2022-09-15T12:25:19.988Z,45.86
2022-09-15T12:28:23.949Z,44.70
2022-09-15T12:31:29.276Z,45.91
2022-09-15T12:34:24.447Z,45.43
2022-09-15T12:36:54.559Z,48.43
2022-09-15T12:39:23.984Z,48.34
2022-09-15T12:41:53.721Z,48.63
2022-09-15T12:44:37.260Z,45.27
2022-09-15T12:47:17.256Z,46.49
2022-09-15T12:49:47.689Z,46.91
2022-09-15T12:52:15.938Z,47.08
2022-09-15T12:54:49.988Z,46.58
2022-09-15T12:57:49.623Z,47.18
2022-09-15T13:00:50.031Z,47.07
2022-09-15T13:06:24.122Z,46.68
2022-09-15T13:09:05.756Z,47.93
2022-09-15T13:11:38.585Z,47.50
2022-09-15T13:14:08.147Z,47.58
2022-09-15T13:16:40.668Z,46.47
2022-09-15T13:19:13.824Z,47.65
2022-09-15T13:21:43.873Z,44.38
2022-09-15T13:24:37.380Z,45.37
2022-09-15T13:27:07.414Z,44.04
2022-09-15T13:29:43.571Z,41.15
2022-09-15T13:32:31.973Z,41.67
2022-09-15T13:35:24.994Z,43.34
2022-09-15T13:38:21.244Z,43.65
2022-09-15T13:41:02.360Z,42.07
2022-09-15T13:43:59.796Z,41.00
2022-09-15T13:46:35.361Z,41.88
2022-09-15T13:49:32.159Z,41.47
2022-09-15T13:52:23.406Z,40.72
2022-09-15T13:55:12.608Z,42.16
2022-09-15T14:00:34.123Z,42.24
2022-09-15T14:03:10.460Z,42.02
2022-09-15T14:05:37.345Z,43.34
2022-09-15T14:08:05.865Z,41.29
2022-09-15T14:10:39.955Z,41.29
2022-09-15T14:13:06.475Z,41.23
2022-09-15T14:15:33.838Z,41.65
2022-09-15T14:18:00.505Z,42.66
2022-09-15T14:20:32.288Z,41.33
2022-09-15T14:23:00.347Z,41.13
2022-09-15T14:25:31.019Z,40.15
2022-09-15T14:27:57.767Z,41.66
2022-09-15T14:30:34.774Z,41.26
2022-09-15T14:33:02.798Z,42.49
2022-09-15T14:35:36.803Z,40.98
2022-09-15T14:38:03.730Z,41.98
2022-09-15T14:40:39.487Z,43.45
2022-09-15T14:43:26.789Z,41.72
2022-09-15T14:45:56.676Z,42.02
2022-09-15T14:48:26.849Z,41.16
2022-09-15T14:51:01.966Z,40.45
2022-09-15T14:53:31.170Z,40.10
2022-09-15T14:56:19.311Z,36.17
2022-09-15T14:58:52.721Z,38.63
2022-09-15T15:01:26.535Z,39.94
2022-09-15T15:04:10.229Z,40.60
2022-09-15T15:06:47.819Z,38.90
2022-09-15T15:09:34.570Z,36.14
2022-09-15T15:12:06.371Z,37.25
2022-09-15T15:14:34.651Z,37.90
2022-09-15T15:17:06.234Z,38.89
2022-09-15T15:19:38.076Z,37.62
2022-09-15T15:22:13.847Z,37.59
2022-09-15T15:24:44.141Z,37.26
2022-09-15T15:27:32.697Z,36.87
2022-09-15T15:30:26.694Z,39.40
2022-09-15T15:32:54.182Z,38.90
2022-09-15T15:35:21.367Z,38.79
2022-09-15T15:37:49.370Z,39.12
2022-09-15T15:40:23.451Z,38.51
2022-09-15T15:42:57.835Z,38.70
2022-09-15T15:45:32.542Z,39.11
2022-09-15T15:48:01.133Z,38.64
2022-09-15T15:50:28.286Z,39.81
2022-09-15T15:52:55.246Z,39.39
2022-09-15T15:55:24.467Z,40.95
2022-09-15T15:57:55.539Z,40.88
2022-09-15T16:00:32.904Z,39.31
2022-09-15T16:02:59.534Z,40.16
2022-09-15T16:05:28.014Z,40.91
2022-09-15T16:07:57.043Z,40.72
2022-09-15T16:10:27.992Z,41.35
2022-09-15T16:12:54.459Z,41.85
2022-09-15T16:15:21.623Z,41.01
2022-09-15T16:17:49.006Z,41.50
2022-09-15T16:20:16.334Z,41.27
2022-09-15T16:22:43.637Z,42.33
2022-09-15T16:25:17.187Z,41.97
2022-09-15T16:27:43.951Z,42.45
2022-09-15T16:30:13.976Z,42.24
2022-09-15T16:32:42.880Z,42.79
2022-09-15T16:35:21.686Z,43.37
2022-09-15T16:37:48.230Z,43.69
2022-09-15T16:40:15.306Z,43.78
2022-09-15T16:42:42.009Z,43.38
2022-09-15T16:45:35.168Z,43.25
2022-09-15T16:48:04.817Z,44.18
2022-09-15T16:50:31.587Z,44.95
2022-09-15T16:52:59.310Z,44.64
2022-09-15T16:55:38.965Z,46.15
2022-09-15T16:58:06.209Z,45.80
2022-09-15T17:00:36.065Z,45.83
2022-09-15T17:03:07.346Z,45.78
2022-09-15T17:05:39.397Z,45.10
2022-09-15T17:08:07.476Z,46.42
2022-09-15T17:10:34.845Z,47.37
2022-09-15T17:13:01.700Z,46.78
2022-09-15T17:15:36.669Z,46.82
2022-09-15T17:18:04.124Z,47.14
2022-09-15T17:20:31.720Z,48.17
2022-09-15T17:22:59.555Z,48.23
2022-09-15T17:25:33.882Z,48.20
2022-09-15T17:28:00.829Z,48.69
2022-09-15T17:30:30.209Z,48.17
2022-09-15T17:33:05.172Z,49.50
2022-09-15T17:35:34.489Z,49.17
2022-09-15T17:38:01.731Z,49.62
2022-09-15T17:40:28.950Z,49.36
2022-09-15T17:42:55.870Z,49.70
2022-09-15T17:45:28.331Z,49.90
2022-09-15T17:47:54.770Z,50.16
2022-09-15T17:50:23.542Z,50.10
2022-09-15T17:52:50.158Z,50.30
2022-09-15T17:55:27.206Z,50.79
2022-09-15T17:57:54.910Z,50.92
2022-09-15T18:00:22.490Z,51.28
2022-09-15T18:02:51.943Z,49.96
2022-09-15T18:05:29.652Z,50.42
2022-09-15T18:07:58.756Z,51.12
2022-09-15T18:10:26.591Z,52.44
2022-09-15T18:12:56.947Z,51.87
2022-09-15T18:15:29.651Z,51.79
2022-09-15T18:17:58.759Z,51.84
2022-09-15T18:20:28.426Z,51.52
2022-09-15T18:22:56.332Z,51.76
2022-09-15T18:25:38.555Z,52.11
2022-09-15T18:28:05.368Z,51.86
2022-09-15T18:30:41.127Z,52.19
2022-09-15T18:33:13.731Z,52.79
2022-09-15T18:35:41.192Z,52.66
2022-09-15T18:38:08.232Z,53.10
2022-09-15T18:40:34.760Z,53.25
2022-09-15T18:43:01.391Z,53.01
2022-09-15T18:45:28.708Z,53.12
2022-09-15T18:47:55.241Z,53.09
2022-09-15T18:50:23.987Z,53.51
2022-09-15T18:52:50.829Z,53.39
2022-09-15T18:55:20.223Z,53.47
2022-09-15T18:57:47.366Z,53.79
2022-09-15T19:00:19.894Z,54.18
2022-09-15T19:02:47.552Z,54.62
2022-09-15T19:05:15.670Z,54.03
2022-09-15T19:07:46.014Z,54.40
2022-09-15T19:10:14.431Z,55.09
2022-09-15T19:12:41.017Z,54.38
2022-09-15T19:15:11.075Z,55.35
2022-09-15T19:17:39.374Z,54.99
2022-09-15T19:20:07.469Z,55.35
2022-09-15T19:22:34.574Z,55.27
2022-09-15T19:25:01.266Z,55.49
2022-09-15T19:27:28.179Z,55.23
2022-09-15T19:29:54.774Z,55.25
2022-09-15T19:32:22.200Z,54.79
2022-09-15T19:34:48.995Z,54.39
2022-09-15T19:37:18.785Z,55.01
2022-09-15T19:39:46.235Z,54.82
2022-09-15T19:42:13.330Z,54.39
2022-09-15T19:44:41.224Z,53.75
2022-09-15T19:47:08.471Z,54.20
2022-09-15T19:49:35.166Z,52.57
2022-09-15T19:52:01.939Z,52.85
2022-09-15T19:54:30.750Z,52.76
2022-09-15T19:56:57.918Z,52.06
2022-09-15T19:59:27.519Z,51.42
2022-09-15T20:01:56.834Z,51.70
2022-09-15T20:04:23.426Z,51.63
2022-09-15T20:06:50.116Z,50.65
2022-09-15T20:09:17.035Z,50.52
2022-09-15T20:11:43.706Z,51.08
2022-09-15T20:14:12.292Z,50.44
2022-09-15T20:16:38.908Z,51.11
2022-09-15T20:19:06.164Z,51.44
2022-09-15T20:21:51.393Z,50.66
2022-09-15T20:24:20.313Z,50.92
2022-09-15T20:26:47.404Z,51.38
2022-09-15T20:29:14.381Z,50.26
2022-09-15T20:31:41.125Z,50.58
2022-09-15T20:34:08.228Z,51.32
2022-09-15T20:36:38.431Z,51.06
2022-09-15T20:39:09.330Z,50.98
2022-09-15T20:41:36.933Z,51.51
2022-09-15T20:44:03.755Z,51.34
2022-09-15T20:46:31.333Z,51.97
2022-09-15T20:48:58.010Z,51.42
2022-09-15T20:51:27.929Z,51.32
2022-09-15T20:53:56.896Z,50.40
2022-09-15T20:56:28.651Z,51.21
2022-09-15T20:58:58.432Z,51.49
2022-09-15T21:01:28.105Z,51.88
2022-09-15T21:03:55.521Z,52.16
2022-09-15T21:06:25.180Z,51.46
2022-09-15T21:08:52.071Z,52.27
2022-09-15T21:11:20.655Z,52.21
2022-09-15T21:13:48.540Z,52.85
2022-09-15T21:16:20.802Z,52.49
2022-09-15T21:18:48.306Z,52.70
2022-09-15T21:21:25.106Z,52.89
2022-09-15T21:23:54.753Z,52.58
2022-09-15T21:26:24.079Z,53.73
2022-09-15T21:28:50.890Z,54.63
2022-09-15T21:31:26.247Z,53.84
2022-09-15T21:33:54.224Z,53.79
2022-09-15T21:36:23.187Z,53.20
2022-09-15T21:38:51.563Z,54.08
2022-09-15T21:41:21.454Z,54.06
2022-09-15T21:43:48.719Z,54.08
2022-09-15T21:46:18.270Z,54.13
2022-09-15T21:48:48.054Z,54.52
2022-09-15T21:51:21.940Z,53.61
2022-09-15T21:53:52.105Z,54.48
2022-09-15T21:56:18.755Z,55.55
2022-09-15T21:58:45.594Z,55.51
2022-09-15T22:01:20.659Z,54.40
2022-09-15T22:03:50.663Z,54.46
2022-09-15T22:06:18.338Z,55.16
2022-09-15T22:09:41.305Z,55.88
2022-09-15T22:12:08.521Z,54.54
2022-09-15T22:14:35.217Z,54.83
2022-09-15T22:17:01.711Z,55.42
2022-09-15T22:19:29.180Z,55.71
2022-09-15T22:21:55.627Z,55.53
2022-09-15T22:24:22.201Z,56.06
2022-09-15T22:26:48.910Z,55.60
2022-09-15T22:29:15.429Z,56.19
2022-09-15T22:31:42.265Z,56.09
2022-09-15T22:34:09.036Z,54.97
2022-09-15T22:36:35.539Z,55.50
2022-09-15T22:39:05.292Z,55.88
2022-09-15T22:41:38.432Z,56.07
2022-09-15T22:44:05.942Z,55.88
2022-09-15T22:46:32.760Z,55.76
2022-09-15T22:48:59.871Z,55.76
2022-09-15T22:51:26.465Z,56.03
2022-09-15T22:53:54.712Z,55.39
2022-09-15T22:56:21.526Z,56.24
2022-09-15T22:58:49.703Z,55.69
2022-09-15T23:01:18.897Z,55.49
2022-09-15T23:04:07.019Z,56.88
2022-09-15T23:06:34.374Z,56.63
2022-09-15T23:09:06.441Z,56.23
2022-09-15T23:11:33.749Z,56.35
2022-09-15T23:14:01.303Z,56.60
2022-09-15T23:16:28.499Z,56.58
2022-09-15T23:18:58.150Z,57.41
2022-09-15T23:21:25.150Z,57.07
2022-09-15T23:23:54.053Z,56.38
2022-09-15T23:26:22.393Z,57.20
2022-09-15T23:28:51.815Z,56.88
2022-09-15T23:31:19.204Z,57.16
2022-09-15T23:33:46.896Z,56.79
2022-09-15T23:36:16.536Z,56.79
2022-09-15T23:38:45.228Z,56.22
2022-09-15T23:41:13.962Z,57.87
2022-09-15T23:43:43.769Z,57.12
2022-09-15T23:46:10.830Z,57.00
2022-09-15T23:48:37.810Z,57.77
2022-09-15T23:51:05.262Z,58.19
2022-09-15T23:53:31.944Z,57.17
2022-09-15T23:55:58.451Z,57.03
2022-09-15T23:58:25.160Z,57.13
